createdAt,value
2023-04-28T00:00:30.693Z,1010.58
2023-04-28T00:01:30.637Z,1010.65
2023-04-28T00:02:30.825Z,1010.56
2023-04-28T00:03:30.791Z,1010.58
2023-04-28T00:04:30.806Z,1010.55
2023-04-28T00:05:30.633Z,1010.50
2023-04-28T00:06:30.621Z,1010.47
2023-04-28T00:07:38.164Z,1010.46
2023-04-28T00:08:30.570Z,1010.45
2023-04-28T00:09:30.539Z,1010.47
2023-04-28T00:10:30.540Z,1010.41
2023-04-28T00:11:30.508Z,1010.34
2023-04-28T00:12:30.515Z,1010.39
2023-04-28T00:13:30.510Z,1010.37
2023-04-28T00:14:30.481Z,1010.33
2023-04-28T00:15:30.484Z,1010.34
2023-04-28T00:16:30.472Z,1010.31
2023-04-28T00:17:30.521Z,1010.34
2023-04-28T00:18:30.562Z,1010.39
2023-04-28T00:19:30.411Z,1010.35
2023-04-28T00:20:30.408Z,1010.32
2023-04-28T00:21:30.423Z,1010.27
2023-04-28T00:22:30.388Z,1010.23
2023-04-28T00:23:30.370Z,1010.20
2023-04-28T00:24:30.336Z,1010.18
2023-04-28T00:25:30.366Z,1010.14
2023-04-28T00:26:30.347Z,1010.13
2023-04-28T00:27:30.317Z,1010.12
2023-04-28T00:28:34.781Z,1010.14
2023-04-28T00:29:30.302Z,1010.13
2023-04-28T00:30:30.291Z,1010.08
2023-04-28T00:31:30.292Z,1010.10
2023-04-28T00:32:30.248Z,1010.05
2023-04-28T00:33:30.248Z,1010.00
2023-04-28T00:34:30.218Z,1009.99
2023-04-28T00:35:30.234Z,1009.98
2023-04-28T00:36:30.184Z,1009.95
2023-04-28T00:37:30.167Z,1009.94
2023-04-28T00:38:30.144Z,1009.95
2023-04-28T00:39:30.177Z,1009.97
2023-04-28T00:40:30.124Z,1009.97
2023-04-28T00:41:30.157Z,1009.98
2023-04-28T00:42:30.123Z,1009.89
2023-04-28T00:43:30.147Z,1009.85
2023-04-28T00:44:30.079Z,1009.90
2023-04-28T00:45:30.121Z,1009.85
2023-04-28T00:46:30.069Z,1009.86
2023-04-28T00:47:30.069Z,1009.90
2023-04-28T00:48:30.058Z,1009.90
2023-04-28T00:49:30.015Z,1009.84
2023-04-28T00:50:29.976Z,1009.85
2023-04-28T00:51:30.046Z,1009.85
2023-04-28T00:52:29.964Z,1009.84
2023-04-28T00:53:29.964Z,1009.88
2023-04-28T00:54:29.947Z,1009.94
2023-04-28T00:55:29.952Z,1009.92
2023-04-28T00:56:29.905Z,1009.89
2023-04-28T00:57:29.952Z,1009.87
2023-04-28T00:58:29.917Z,1009.90
2023-04-28T00:59:29.889Z,1009.84
2023-04-28T01:00:29.889Z,1009.90
2023-04-28T01:01:29.873Z,1009.84
2023-04-28T01:02:29.984Z,1009.85
2023-04-28T01:03:29.985Z,1009.83
2023-04-28T01:04:30.029Z,1009.83
2023-04-28T01:05:29.838Z,1009.82
2023-04-28T01:06:29.788Z,1009.81
2023-04-28T01:07:29.858Z,1009.74
2023-04-28T01:08:29.812Z,1009.81
2023-04-28T01:09:29.782Z,1009.78
2023-04-28T01:10:29.740Z,1009.85
2023-04-28T01:11:29.757Z,1009.83
2023-04-28T01:12:29.726Z,1009.77
2023-04-28T01:13:29.721Z,1009.78
2023-04-28T01:14:29.715Z,1009.80
2023-04-28T01:15:29.739Z,1009.78
2023-04-28T01:16:29.700Z,1009.77
2023-04-28T01:17:29.722Z,1009.78
2023-04-28T01:18:29.644Z,1009.77
2023-04-28T01:19:29.657Z,1009.74
2023-04-28T01:20:29.645Z,1009.72
2023-04-28T01:21:29.630Z,1009.79
2023-04-28T01:22:29.601Z,1009.76
2023-04-28T01:23:29.575Z,1009.73
2023-04-28T01:24:29.569Z,1009.76
2023-04-28T01:25:29.552Z,1009.73
2023-04-28T01:26:31.941Z,1009.73
2023-04-28T01:27:29.530Z,1009.73
2023-04-28T01:28:29.513Z,1009.79
2023-04-28T01:29:29.505Z,1009.80
2023-04-28T01:30:29.536Z,1009.74
2023-04-28T01:31:29.583Z,1009.79
2023-04-28T01:32:29.653Z,1009.78
2023-04-28T01:33:29.439Z,1009.75
2023-04-28T01:34:29.469Z,1009.77
2023-04-28T01:35:29.443Z,1009.78
2023-04-28T01:36:29.467Z,1009.75
2023-04-28T01:37:29.412Z,1009.77
2023-04-28T01:38:29.380Z,1009.69
2023-04-28T01:39:29.378Z,1009.74
2023-04-28T01:40:29.359Z,1009.67
2023-04-28T01:41:29.367Z,1009.73
2023-04-28T01:42:29.336Z,1009.72
2023-04-28T01:43:29.330Z,1009.73
2023-04-28T01:44:29.297Z,1009.73
2023-04-28T01:45:29.332Z,1009.70
2023-04-28T01:46:29.327Z,1009.71
2023-04-28T01:47:29.303Z,1009.64
2023-04-28T01:48:29.248Z,1009.66
2023-04-28T01:49:29.227Z,1009.73
2023-04-28T01:50:29.312Z,1009.69
2023-04-28T01:51:29.217Z,1009.65
2023-04-28T01:52:29.216Z,1009.71
2023-04-28T01:53:29.170Z,1009.67
2023-04-28T01:54:29.176Z,1009.76
2023-04-28T01:55:29.161Z,1009.74
2023-04-28T01:56:29.168Z,1009.75
2023-04-28T01:57:29.137Z,1009.78
2023-04-28T01:58:29.151Z,1009.84
2023-04-28T01:59:29.108Z,1009.93
2023-04-28T02:00:29.109Z,1009.81
2023-04-28T02:01:29.108Z,1009.77
2023-04-28T02:02:29.140Z,1009.83
2023-04-28T02:03:29.279Z,1009.78
2023-04-28T02:04:29.121Z,1009.77
2023-04-28T02:05:29.038Z,1009.81
2023-04-28T02:06:29.054Z,1009.82
2023-04-28T02:07:28.992Z,1009.81
2023-04-28T02:08:29.049Z,1009.82
2023-04-28T02:09:28.971Z,1009.81
2023-04-28T02:10:28.975Z,1009.81
2023-04-28T02:11:28.941Z,1009.86
2023-04-28T02:12:28.968Z,1009.76
2023-04-28T02:13:28.912Z,1009.80
2023-04-28T02:14:28.921Z,1009.76
2023-04-28T02:15:28.909Z,1009.83
2023-04-28T02:16:29.031Z,1009.80
2023-04-28T02:17:28.938Z,1009.83
2023-04-28T02:18:28.863Z,1009.87
2023-04-28T02:19:28.828Z,1009.88
2023-04-28T02:20:30.719Z,1009.90
2023-04-28T02:21:28.863Z,1009.91
2023-04-28T02:22:28.808Z,1009.87
2023-04-28T02:23:28.809Z,1009.85
2023-04-28T02:24:28.781Z,1009.77
2023-04-28T02:25:28.760Z,1009.72
2023-04-28T02:26:28.765Z,1009.72
2023-04-28T02:27:28.724Z,1009.68
2023-04-28T02:28:28.765Z,1009.66
2023-04-28T02:29:28.699Z,1009.65
2023-04-28T02:30:28.696Z,1009.65
2023-04-28T02:31:28.789Z,1009.64
2023-04-28T02:32:28.724Z,1009.61
2023-04-28T02:33:28.655Z,1009.62
2023-04-28T02:34:28.679Z,1009.62
2023-04-28T02:35:28.642Z,1009.62
2023-04-28T02:36:28.625Z,1009.59
2023-04-28T02:37:28.629Z,1009.61
2023-04-28T02:38:28.628Z,1009.58
2023-04-28T02:39:28.605Z,1009.53
2023-04-28T02:40:28.577Z,1009.55
2023-04-28T02:41:28.595Z,1009.52
2023-04-28T02:42:28.620Z,1009.54
2023-04-28T02:43:28.518Z,1009.53
2023-04-28T02:44:28.516Z,1009.49
2023-04-28T02:45:28.506Z,1009.48
2023-04-28T02:46:28.528Z,1009.49
2023-04-28T02:47:28.532Z,1009.48
2023-04-28T02:48:28.468Z,1009.40
2023-04-28T02:49:28.487Z,1009.43
2023-04-28T02:50:28.443Z,1009.43
2023-04-28T02:51:28.426Z,1009.47
2023-04-28T02:52:28.424Z,1009.47
2023-04-28T02:53:28.416Z,1009.44
2023-04-28T02:54:28.415Z,1009.40
2023-04-28T02:55:28.363Z,1009.38
2023-04-28T02:56:28.385Z,1009.38
2023-04-28T02:57:28.353Z,1009.45
2023-04-28T02:58:28.328Z,1009.43
2023-04-28T02:59:28.323Z,1009.43
2023-04-28T03:00:28.308Z,1009.41
2023-04-28T03:01:28.342Z,1009.42
2023-04-28T03:02:28.409Z,1009.36
2023-04-28T03:03:28.434Z,1009.35
2023-04-28T03:04:28.520Z,1009.32
2023-04-28T03:05:28.265Z,1009.30
2023-04-28T03:06:28.368Z,1009.31
2023-04-28T03:07:28.294Z,1009.25
2023-04-28T03:08:28.216Z,1009.33
2023-04-28T03:09:28.229Z,1009.33
2023-04-28T03:10:28.212Z,1009.34
2023-04-28T03:11:28.181Z,1009.38
2023-04-28T03:12:28.181Z,1009.39
2023-04-28T03:13:28.175Z,1009.43
2023-04-28T03:14:28.136Z,1009.41
2023-04-28T03:15:28.107Z,1009.38
2023-04-28T03:16:28.201Z,1009.46
2023-04-28T03:17:28.158Z,1009.43
2023-04-28T03:18:28.163Z,1009.33
2023-04-28T03:19:28.093Z,1009.37
2023-04-28T03:20:28.089Z,1009.35
2023-04-28T03:21:28.032Z,1009.31
2023-04-28T03:22:28.043Z,1009.33
2023-04-28T03:23:28.022Z,1009.27
2023-04-28T03:24:28.026Z,1009.28
2023-04-28T03:25:28.020Z,1009.20
2023-04-28T03:26:28.021Z,1009.24
2023-04-28T03:27:27.994Z,1009.27
2023-04-28T03:28:28.045Z,1009.26
2023-04-28T03:29:27.953Z,1009.36
2023-04-28T03:30:27.962Z,1009.40
2023-04-28T03:31:27.926Z,1009.38
2023-04-28T03:32:27.939Z,1009.40
2023-04-28T03:33:27.939Z,1009.33
2023-04-28T03:34:27.903Z,1009.38
2023-04-28T03:35:27.851Z,1009.34
2023-04-28T03:36:27.858Z,1009.31
2023-04-28T03:37:27.862Z,1009.27
2023-04-28T03:38:27.840Z,1009.19
2023-04-28T03:39:27.840Z,1009.14
2023-04-28T03:40:27.834Z,1009.17
2023-04-28T03:41:27.778Z,1009.12
2023-04-28T03:42:27.782Z,1009.12
2023-04-28T03:43:27.823Z,1009.15
2023-04-28T03:44:27.777Z,1009.15
2023-04-28T03:45:27.750Z,1009.09
2023-04-28T03:46:27.785Z,1009.10
2023-04-28T03:47:27.707Z,1009.11
2023-04-28T03:48:27.896Z,1009.07
2023-04-28T03:49:27.697Z,1009.10
2023-04-28T03:50:27.698Z,1009.14
2023-04-28T03:51:27.678Z,1009.01
2023-04-28T03:52:27.693Z,1009.06
2023-04-28T03:53:27.678Z,1009.05
2023-04-28T03:54:27.624Z,1008.97
2023-04-28T03:55:27.634Z,1008.96
2023-04-28T03:56:27.614Z,1009.00
2023-04-28T03:57:27.571Z,1008.88
2023-04-28T03:58:27.596Z,1008.82
2023-04-28T03:59:27.545Z,1008.79
2023-04-28T04:00:27.589Z,1008.71
2023-04-28T04:01:28.042Z,1008.63
2023-04-28T04:02:27.660Z,1008.62
2023-04-28T04:03:27.757Z,1008.56
2023-04-28T04:04:27.863Z,1008.57
2023-04-28T04:05:27.520Z,1008.57
2023-04-28T04:06:27.465Z,1008.56
2023-04-28T04:07:27.504Z,1008.53
2023-04-28T04:08:27.514Z,1008.52
2023-04-28T04:09:27.453Z,1008.48
2023-04-28T04:10:27.420Z,1008.50
2023-04-28T04:11:27.432Z,1008.44
2023-04-28T04:12:27.427Z,1008.42
2023-04-28T04:13:27.426Z,1008.42
2023-04-28T04:14:27.373Z,1008.42
2023-04-28T04:15:27.343Z,1008.37
2023-04-28T04:16:27.383Z,1008.34
2023-04-28T04:17:27.414Z,1008.28
2023-04-28T04:18:27.403Z,1008.18
2023-04-28T04:19:27.292Z,1008.20
2023-04-28T04:20:27.313Z,1008.15
2023-04-28T04:21:27.265Z,1008.19
2023-04-28T04:22:27.361Z,1008.20
2023-04-28T04:23:27.263Z,1008.26
2023-04-28T04:24:27.257Z,1008.32
2023-04-28T04:25:27.229Z,1008.31
2023-04-28T04:26:27.236Z,1008.29
2023-04-28T04:27:27.249Z,1008.19
2023-04-28T04:28:27.241Z,1008.16
2023-04-28T04:29:27.201Z,1008.16
2023-04-28T04:30:27.154Z,1008.16
2023-04-28T04:31:27.211Z,1008.24
2023-04-28T04:32:27.218Z,1008.28
2023-04-28T04:33:27.133Z,1008.21
2023-04-28T04:34:27.124Z,1008.27
2023-04-28T04:35:27.098Z,1008.29
2023-04-28T04:36:27.073Z,1008.21
2023-04-28T04:37:27.109Z,1008.30
2023-04-28T04:38:27.037Z,1008.28
2023-04-28T04:39:27.065Z,1008.28
2023-04-28T04:40:27.045Z,1008.31
2023-04-28T04:41:27.050Z,1008.31
2023-04-28T04:42:27.019Z,1008.31
2023-04-28T04:43:26.995Z,1008.36
2023-04-28T04:44:26.969Z,1008.33
2023-04-28T04:45:26.963Z,1008.32
2023-04-28T04:46:27.023Z,1008.34
2023-04-28T04:47:27.003Z,1008.35
2023-04-28T04:48:26.948Z,1008.31
2023-04-28T04:49:27.042Z,1008.33
2023-04-28T04:50:26.910Z,1008.32
2023-04-28T04:51:26.916Z,1008.36
2023-04-28T04:52:26.938Z,1008.37
2023-04-28T04:53:26.981Z,1008.33
2023-04-28T04:54:26.847Z,1008.33
2023-04-28T04:55:26.873Z,1008.36
2023-04-28T04:56:26.806Z,1008.32
2023-04-28T04:57:26.809Z,1008.40
2023-04-28T04:58:26.860Z,1008.38
2023-04-28T04:59:26.809Z,1008.40
2023-04-28T05:00:26.759Z,1008.40
2023-04-28T05:01:26.798Z,1008.39
2023-04-28T05:02:26.765Z,1008.36
2023-04-28T05:03:26.982Z,1008.31
2023-04-28T05:04:26.785Z,1008.42
2023-04-28T05:05:26.798Z,1008.38
2023-04-28T05:06:26.697Z,1008.43
2023-04-28T05:07:26.716Z,1008.49
2023-04-28T05:08:26.681Z,1008.46
2023-04-28T05:09:26.664Z,1008.52
2023-04-28T05:10:26.636Z,1008.51
2023-04-28T05:11:26.667Z,1008.48
2023-04-28T05:12:26.658Z,1008.48
2023-04-28T05:13:26.627Z,1008.52
2023-04-28T05:14:26.609Z,1008.51
2023-04-28T05:15:26.577Z,1008.43
2023-04-28T05:16:26.613Z,1008.38
2023-04-28T05:17:26.592Z,1008.38
2023-04-28T05:18:26.581Z,1008.36
2023-04-28T05:19:26.531Z,1008.33
2023-04-28T05:20:26.541Z,1008.35
2023-04-28T05:21:26.509Z,1008.30
2023-04-28T05:22:26.529Z,1008.35
2023-04-28T05:23:26.519Z,1008.32
2023-04-28T05:24:26.451Z,1008.24
2023-04-28T05:25:26.464Z,1008.22
2023-04-28T05:26:26.464Z,1008.19
2023-04-28T05:27:26.453Z,1008.19
2023-04-28T05:28:26.439Z,1008.21
2023-04-28T05:29:26.409Z,1008.23
2023-04-28T05:30:26.405Z,1008.23
2023-04-28T05:31:26.457Z,1008.25
2023-04-28T05:32:26.389Z,1008.25
2023-04-28T05:33:26.379Z,1008.34
2023-04-28T05:34:26.351Z,1008.32
2023-04-28T05:35:26.339Z,1008.32
2023-04-28T05:36:26.328Z,1008.35
2023-04-28T05:37:26.301Z,1008.34
2023-04-28T05:38:26.287Z,1008.32
2023-04-28T05:39:26.323Z,1008.32
2023-04-28T05:40:26.274Z,1008.30
2023-04-28T05:41:26.266Z,1008.34
2023-04-28T05:42:26.319Z,1008.35
2023-04-28T05:43:26.249Z,1008.29
2023-04-28T05:44:26.251Z,1008.30
2023-04-28T05:45:26.222Z,1008.28
2023-04-28T05:46:30.698Z,1008.27
2023-04-28T05:47:26.227Z,1008.26
2023-04-28T05:48:26.149Z,1008.29
2023-04-28T05:49:26.160Z,1008.27
2023-04-28T05:50:26.124Z,1008.26
2023-04-28T05:51:26.204Z,1008.23
2023-04-28T05:52:26.096Z,1008.17
2023-04-28T05:53:26.139Z,1008.21
2023-04-28T05:54:26.169Z,1008.19
2023-04-28T05:55:26.078Z,1008.14
2023-04-28T05:56:26.072Z,1008.17
2023-04-28T05:57:26.146Z,1008.20
2023-04-28T05:58:26.056Z,1008.19
2023-04-28T05:59:26.036Z,1008.15
2023-04-28T06:00:26.112Z,1008.25
2023-04-28T06:01:26.010Z,1008.15
2023-04-28T06:02:27.964Z,1008.20
2023-04-28T06:03:26.281Z,1008.17
2023-04-28T06:04:26.746Z,1008.17
2023-04-28T06:05:26.479Z,1008.17
2023-04-28T06:06:26.064Z,1008.16
2023-04-28T06:07:25.968Z,1008.17
2023-04-28T06:08:35.225Z,1008.10
2023-04-28T06:09:27.762Z,1008.08
2023-04-28T06:10:25.892Z,1008.12
2023-04-28T06:11:28.611Z,1008.12
2023-04-28T06:12:25.840Z,1008.10
2023-04-28T06:13:25.907Z,1008.10
2023-04-28T06:14:25.886Z,1008.16
2023-04-28T06:15:25.907Z,1008.11
2023-04-28T06:16:25.949Z,1008.15
2023-04-28T06:17:25.832Z,1008.06
2023-04-28T06:18:25.834Z,1008.06
2023-04-28T06:19:25.897Z,1008.10
2023-04-28T06:20:25.764Z,1008.13
2023-04-28T06:21:25.770Z,1008.12
2023-04-28T06:22:25.763Z,1008.10
2023-04-28T06:23:25.716Z,1008.06
2023-04-28T06:24:25.756Z,1008.14
2023-04-28T06:25:25.703Z,1008.14
2023-04-28T06:26:25.699Z,1008.12
2023-04-28T06:27:25.681Z,1008.10
2023-04-28T06:28:25.665Z,1008.12
2023-04-28T06:29:25.707Z,1008.13
2023-04-28T06:30:25.680Z,1008.09
2023-04-28T06:31:25.761Z,1008.05
2023-04-28T06:32:25.645Z,1008.03
2023-04-28T06:33:25.582Z,1008.05
2023-04-28T06:34:25.572Z,1008.12
2023-04-28T06:35:25.583Z,1008.17
2023-04-28T06:36:25.536Z,1008.14
2023-04-28T06:37:25.536Z,1008.20
2023-04-28T06:38:25.524Z,1008.19
2023-04-28T06:39:25.546Z,1008.15
2023-04-28T06:40:25.543Z,1008.17
2023-04-28T06:41:25.526Z,1008.20
2023-04-28T06:42:26.922Z,1008.22
2023-04-28T06:43:25.490Z,1008.19
2023-04-28T06:44:25.462Z,1008.15
2023-04-28T06:45:25.427Z,1008.20
2023-04-28T06:46:25.437Z,1008.18
2023-04-28T06:47:25.462Z,1008.18
2023-04-28T06:48:25.379Z,1008.15
2023-04-28T06:49:25.395Z,1008.19
2023-04-28T06:50:25.457Z,1008.13
2023-04-28T06:51:25.383Z,1008.15
2023-04-28T06:52:33.124Z,1007.99
2023-04-28T06:53:26.341Z,1008.10
2023-04-28T06:54:25.329Z,1008.02
2023-04-28T06:55:25.285Z,1008.01
2023-04-28T06:56:25.302Z,1007.99
2023-04-28T06:57:25.295Z,1008.08
2023-04-28T06:58:25.276Z,1008.05
2023-04-28T06:59:25.469Z,1008.09
2023-04-28T07:00:25.357Z,1008.16
2023-04-28T07:01:25.293Z,1008.13
2023-04-28T07:02:25.371Z,1008.19
2023-04-28T07:03:25.473Z,1008.19
2023-04-28T07:04:25.392Z,1008.20
2023-04-28T07:05:25.206Z,1008.18
2023-04-28T07:06:25.178Z,1008.15
2023-04-28T07:07:25.144Z,1008.08
2023-04-28T07:08:25.169Z,1008.07
2023-04-28T07:09:25.178Z,1008.04
2023-04-28T07:10:25.136Z,1008.02
2023-04-28T07:11:25.122Z,1008.17
2023-04-28T07:12:25.067Z,1008.23
2023-04-28T07:13:25.085Z,1008.24
2023-04-28T07:14:25.094Z,1008.23
2023-04-28T07:15:25.138Z,1008.27
2023-04-28T07:16:25.090Z,1008.16
2023-04-28T07:17:25.171Z,1008.22
2023-04-28T07:18:25.027Z,1008.16
2023-04-28T07:19:25.003Z,1008.14
2023-04-28T07:20:25.029Z,1008.29
2023-04-28T07:21:24.983Z,1008.30
2023-04-28T07:22:24.948Z,1008.21
2023-04-28T07:23:24.985Z,1008.33
2023-04-28T07:24:24.938Z,1008.30
2023-04-28T07:25:24.972Z,1008.27
2023-04-28T07:26:24.940Z,1008.36
2023-04-28T07:27:24.896Z,1008.31
2023-04-28T07:28:24.905Z,1008.35
2023-04-28T07:29:24.867Z,1008.38
2023-04-28T07:30:27.770Z,1008.30
2023-04-28T07:31:24.948Z,1008.28
2023-04-28T07:32:24.922Z,1008.27
2023-04-28T07:33:24.820Z,1008.25
2023-04-28T07:34:24.852Z,1008.33
2023-04-28T07:35:24.938Z,1008.31
2023-04-28T07:36:24.833Z,1008.30
2023-04-28T07:37:24.757Z,1008.25
2023-04-28T07:38:24.749Z,1008.26
2023-04-28T07:39:24.750Z,1008.25
2023-04-28T07:40:24.732Z,1008.24
2023-04-28T07:41:24.707Z,1008.19
2023-04-28T07:42:24.701Z,1008.17
2023-04-28T07:43:24.717Z,1008.18
2023-04-28T07:44:24.681Z,1008.24
2023-04-28T07:45:24.734Z,1008.23
2023-04-28T07:46:24.708Z,1008.24
2023-04-28T07:47:24.648Z,1008.20
2023-04-28T07:48:24.676Z,1008.14
2023-04-28T07:49:24.671Z,1008.18
2023-04-28T07:50:24.634Z,1008.16
2023-04-28T07:51:24.582Z,1008.19
2023-04-28T07:52:24.628Z,1008.17
2023-04-28T07:53:24.587Z,1008.16
2023-04-28T07:54:24.599Z,1008.09
2023-04-28T07:55:24.548Z,1008.11
2023-04-28T07:56:24.525Z,1008.11
2023-04-28T07:57:24.495Z,1008.13
2023-04-28T07:58:24.515Z,1008.14
2023-04-28T07:59:24.527Z,1008.12
2023-04-28T08:00:24.477Z,1008.15
2023-04-28T08:01:24.545Z,1008.15
2023-04-28T08:02:24.539Z,1008.18
2023-04-28T08:03:24.646Z,1008.15
2023-04-28T08:04:24.871Z,1008.21
2023-04-28T08:05:24.508Z,1008.16
2023-04-28T08:06:24.400Z,1008.06
2023-04-28T08:07:24.377Z,1008.11
2023-04-28T08:08:24.396Z,1008.14
2023-04-28T08:09:24.394Z,1008.14
2023-04-28T08:10:24.346Z,1008.06
2023-04-28T08:11:24.356Z,1008.07
2023-04-28T08:12:24.293Z,1008.11
2023-04-28T08:13:24.315Z,1008.10
2023-04-28T08:14:24.281Z,1008.16
2023-04-28T08:15:24.270Z,1008.14
2023-04-28T08:16:24.350Z,1008.12
2023-04-28T08:17:24.312Z,1008.10
2023-04-28T08:18:24.273Z,1008.11
2023-04-28T08:19:24.234Z,1008.06
2023-04-28T08:20:24.910Z,1008.06
2023-04-28T08:21:24.193Z,1008.07
2023-04-28T08:22:24.201Z,1008.02
2023-04-28T08:23:24.249Z,1008.07
2023-04-28T08:24:24.152Z,1008.09
2023-04-28T08:25:24.148Z,1008.08
2023-04-28T08:26:24.172Z,1008.09
2023-04-28T08:27:24.136Z,1008.06
2023-04-28T08:28:24.120Z,1008.03
2023-04-28T08:29:24.229Z,1008.00
2023-04-28T08:30:24.078Z,1008.03
2023-04-28T08:31:24.239Z,1008.02
2023-04-28T08:32:24.069Z,1008.01
2023-04-28T08:33:24.036Z,1008.05
2023-04-28T08:34:24.068Z,1008.07
2023-04-28T08:35:24.034Z,1008.11
2023-04-28T08:36:23.973Z,1008.07
2023-04-28T08:37:24.180Z,1008.11
2023-04-28T08:38:23.993Z,1008.15
2023-04-28T08:39:23.998Z,1008.08
2023-04-28T08:40:23.978Z,1008.08
2023-04-28T08:41:23.924Z,1008.04
2023-04-28T08:42:23.925Z,1008.05
2023-04-28T08:43:23.925Z,1008.05
2023-04-28T08:44:23.929Z,1008.06
2023-04-28T08:45:23.886Z,1007.99
2023-04-28T08:46:23.985Z,1008.10
2023-04-28T08:47:23.918Z,1008.10
2023-04-28T08:48:24.087Z,1008.12
2023-04-28T08:49:23.849Z,1008.16
2023-04-28T08:50:23.850Z,1008.17
2023-04-28T08:51:23.811Z,1008.23
2023-04-28T08:52:23.805Z,1008.21
2023-04-28T08:53:23.822Z,1008.18
2023-04-28T08:54:29.064Z,1008.18
2023-04-28T08:55:24.755Z,1008.15
2023-04-28T08:56:23.727Z,1008.19
2023-04-28T08:57:23.736Z,1008.20
2023-04-28T08:58:23.714Z,1008.22
2023-04-28T08:59:23.764Z,1008.21
2023-04-28T09:00:23.715Z,1008.23
2023-04-28T09:01:23.774Z,1008.20
2023-04-28T09:02:23.892Z,1008.20
2023-04-28T09:03:23.943Z,1008.21
2023-04-28T09:04:24.054Z,1008.16
2023-04-28T09:05:23.906Z,1008.19
2023-04-28T09:06:23.626Z,1008.16
2023-04-28T09:07:23.620Z,1008.13
2023-04-28T09:08:23.636Z,1008.20
2023-04-28T09:09:23.575Z,1008.12
2023-04-28T09:10:23.580Z,1008.12
2023-04-28T09:11:23.550Z,1008.15
2023-04-28T09:12:23.515Z,1008.12
2023-04-28T09:13:23.502Z,1008.16
2023-04-28T09:14:23.532Z,1008.17
2023-04-28T09:15:23.496Z,1008.15
2023-04-28T09:16:23.653Z,1008.15
2023-04-28T09:17:23.552Z,1008.15
2023-04-28T09:18:23.475Z,1008.08
2023-04-28T09:19:23.444Z,1008.13
2023-04-28T09:20:23.473Z,1008.12
2023-04-28T09:21:23.475Z,1008.10
2023-04-28T09:22:26.646Z,1008.11
2023-04-28T09:23:23.365Z,1008.09
2023-04-28T09:24:23.406Z,1008.08
2023-04-28T09:25:23.352Z,1008.09
2023-04-28T09:26:23.369Z,1008.04
2023-04-28T09:27:23.363Z,1008.06
2023-04-28T09:28:23.391Z,1008.02
2023-04-28T09:29:23.317Z,1008.12
2023-04-28T09:30:23.348Z,1008.08
2023-04-28T09:31:23.346Z,1008.15
2023-04-28T09:32:23.689Z,1008.10
2023-04-28T09:33:23.316Z,1008.10
2023-04-28T09:34:23.256Z,1008.09
2023-04-28T09:35:23.253Z,1008.07
2023-04-28T09:36:23.241Z,1008.07
2023-04-28T09:37:23.223Z,1008.03
2023-04-28T09:38:23.304Z,1008.07
2023-04-28T09:39:23.267Z,1008.07
2023-04-28T09:40:23.248Z,1008.11
2023-04-28T09:41:23.220Z,1008.11
2023-04-28T09:42:23.191Z,1008.07
2023-04-28T09:43:23.176Z,1008.06
2023-04-28T09:44:23.114Z,1008.05
2023-04-28T09:45:23.150Z,1008.09
2023-04-28T09:46:23.128Z,1008.08
2023-04-28T09:47:23.056Z,1008.09
2023-04-28T09:48:23.119Z,1008.13
2023-04-28T09:49:23.093Z,1008.09
2023-04-28T09:50:23.059Z,1008.08
2023-04-28T09:51:23.012Z,1008.09
2023-04-28T09:52:23.011Z,1008.09
2023-04-28T09:53:22.997Z,1008.06
2023-04-28T09:54:23.033Z,1008.07
2023-04-28T09:55:22.981Z,1008.11
2023-04-28T09:56:23.002Z,1008.04
2023-04-28T09:57:23.248Z,1008.09
2023-04-28T09:58:22.994Z,1008.05
2023-04-28T09:59:22.971Z,1008.05
2023-04-28T10:00:22.962Z,1007.99
2023-04-28T10:01:22.880Z,1008.04
2023-04-28T10:02:42.763Z,1008.05
2023-04-28T10:03:25.116Z,1007.98
2023-04-28T10:04:23.127Z,1008.00
2023-04-28T10:05:23.335Z,1008.03
2023-04-28T10:06:23.396Z,1007.99
2023-04-28T10:07:22.900Z,1008.00
2023-04-28T10:08:22.806Z,1008.06
2023-04-28T10:09:24.803Z,1008.10
2023-04-28T10:10:22.851Z,1007.99
2023-04-28T10:11:22.824Z,1008.01
2023-04-28T10:12:22.798Z,1008.04
2023-04-28T10:13:22.818Z,1008.01
2023-04-28T10:14:22.784Z,1008.02
2023-04-28T10:15:22.725Z,1008.10
2023-04-28T10:16:22.809Z,1008.07
2023-04-28T10:17:22.764Z,1008.04
2023-04-28T10:18:22.678Z,1008.03
2023-04-28T10:19:22.691Z,1008.02
2023-04-28T10:20:22.728Z,1007.96
2023-04-28T10:21:22.618Z,1008.01
2023-04-28T10:22:22.682Z,1008.07
2023-04-28T10:23:22.648Z,1008.04
2023-04-28T10:24:22.684Z,1008.08
2023-04-28T10:25:22.613Z,1008.04
2023-04-28T10:26:22.613Z,1008.01
2023-04-28T10:27:22.702Z,1007.97
2023-04-28T10:28:22.607Z,1008.04
2023-04-28T10:29:22.550Z,1008.00
2023-04-28T10:30:28.363Z,1007.98
2023-04-28T10:31:23.621Z,1008.05
2023-04-28T10:32:22.534Z,1008.03
2023-04-28T10:33:22.505Z,1008.00
2023-04-28T10:34:22.526Z,1007.95
2023-04-28T10:35:22.499Z,1008.01
2023-04-28T10:36:35.717Z,1008.01
2023-04-28T10:37:23.591Z,1007.98
2023-04-28T10:38:22.427Z,1007.96
2023-04-28T10:39:22.471Z,1008.00
2023-04-28T10:40:22.462Z,1008.03
2023-04-28T10:41:22.410Z,1008.00
2023-04-28T10:42:22.405Z,1008.04
2023-04-28T10:43:22.366Z,1008.02
2023-04-28T10:44:22.368Z,1008.04
2023-04-28T10:45:22.334Z,1007.97
2023-04-28T10:46:22.359Z,1008.03
2023-04-28T10:47:22.332Z,1008.01
2023-04-28T10:48:22.284Z,1008.00
2023-04-28T10:49:22.282Z,1007.97
2023-04-28T10:50:29.339Z,1007.99
2023-04-28T10:51:23.273Z,1007.88
2023-04-28T10:52:22.256Z,1007.93
2023-04-28T10:53:22.232Z,1007.91
2023-04-28T10:54:22.236Z,1007.99
2023-04-28T10:55:22.718Z,1007.97
2023-04-28T10:56:22.194Z,1007.98
2023-04-28T10:57:22.193Z,1007.97
2023-04-28T10:58:22.152Z,1007.97
2023-04-28T10:59:22.151Z,1007.99
2023-04-28T11:00:22.171Z,1007.93
2023-04-28T11:01:22.550Z,1007.86
2023-04-28T11:02:22.229Z,1007.95
2023-04-28T11:03:22.218Z,1007.86
2023-04-28T11:04:22.367Z,1007.83
2023-04-28T11:05:22.243Z,1007.83
2023-04-28T11:06:22.103Z,1007.76
2023-04-28T11:07:22.079Z,1007.81
2023-04-28T11:08:22.059Z,1007.78
2023-04-28T11:09:22.000Z,1007.76
2023-04-28T11:10:22.032Z,1007.75
2023-04-28T11:11:21.995Z,1007.73
2023-04-28T11:12:21.978Z,1007.78
2023-04-28T11:13:21.959Z,1007.71
2023-04-28T11:14:21.991Z,1007.74
2023-04-28T11:15:21.952Z,1007.72
2023-04-28T11:16:22.036Z,1007.69
2023-04-28T11:17:21.925Z,1007.69
2023-04-28T11:18:21.917Z,1007.72
2023-04-28T11:19:21.868Z,1007.61
2023-04-28T11:20:21.926Z,1007.68
2023-04-28T11:21:21.893Z,1007.64
2023-04-28T11:22:21.912Z,1007.64
2023-04-28T11:23:21.839Z,1007.60
2023-04-28T11:24:21.861Z,1007.61
2023-04-28T11:25:21.820Z,1007.56
2023-04-28T11:26:21.833Z,1007.59
2023-04-28T11:27:21.788Z,1007.60
2023-04-28T11:28:21.817Z,1007.58
2023-04-28T11:29:21.764Z,1007.62
2023-04-28T11:30:21.831Z,1007.56
2023-04-28T11:31:21.779Z,1007.58
2023-04-28T11:32:21.725Z,1007.61
2023-04-28T11:33:21.701Z,1007.65
2023-04-28T11:34:21.743Z,1007.59
2023-04-28T11:35:21.697Z,1007.65
2023-04-28T11:36:21.695Z,1007.58
2023-04-28T11:37:21.648Z,1007.55
2023-04-28T11:38:21.638Z,1007.51
2023-04-28T11:39:21.636Z,1007.58
2023-04-28T11:40:21.619Z,1007.52
2023-04-28T11:41:21.664Z,1007.48
2023-04-28T11:42:21.586Z,1007.50
2023-04-28T11:43:21.584Z,1007.49
2023-04-28T11:44:21.604Z,1007.50
2023-04-28T11:45:21.537Z,1007.53
2023-04-28T11:46:21.689Z,1007.53
2023-04-28T11:47:21.504Z,1007.55
2023-04-28T11:48:21.569Z,1007.53
2023-04-28T11:49:21.508Z,1007.56
2023-04-28T11:50:21.482Z,1007.57
2023-04-28T11:51:21.538Z,1007.58
2023-04-28T11:52:21.459Z,1007.55
2023-04-28T11:53:22.213Z,1007.55
2023-04-28T11:54:21.466Z,1007.54
2023-04-28T11:55:21.433Z,1007.53
2023-04-28T11:56:21.429Z,1007.53
2023-04-28T11:57:21.691Z,1007.51
2023-04-28T11:58:21.434Z,1007.49
2023-04-28T11:59:21.357Z,1007.50
2023-04-28T12:00:21.371Z,1007.51
2023-04-28T12:01:21.382Z,1007.51
2023-04-28T12:02:21.501Z,1007.51
2023-04-28T12:03:21.438Z,1007.53
2023-04-28T12:04:21.431Z,1007.51
2023-04-28T12:05:21.363Z,1007.48